Venta Maersk — OWHH2 — position and weather

sailwx.info

Track history (hours):
 
Tides and Currents Weather Stations Pressure Air Temp Water Temp Dewpoint Dewpoint Depression Visibility Wind Speed Wind Dir Waves Ship Positions

Venta Maersk

Last reported at 2019-Nov-19 14:30 UTC. Time now 2019-Nov-19 15:27 UTC.
Position N 55°39' E 021°10'.

Length 200 m; draft 9 m.

Type: Ship (hazmat cat A). MMSI: 219115000.

Date/timePositionNaut miles runAvg speedWind from/ knotsBaromVisibWave heightAir tempDewpointWater temp
2019-Nov-19 14:30N 55°39' E 021°10'0 0.0
2019-Nov-19 13:31N 55°39' E 021°10'0 0.0
2019-Nov-19 11:00N 55°39' E 021°10'0 0.0
2019-Nov-19 09:00N 55°39' E 021°10'0 0.0
2019-Nov-19 07:00N 55°39' E 021°10'8 3.3
2019-Nov-19 04:30N 55°44' E 020°58'14 5.0
2019-Nov-19 01:36N 55°40' E 020°33'53 5.5
2019-Nov-18 16:00N 55°01' E 019°29'3 5.4
2019-Nov-18 15:30N 54°59' E 019°27'18 7.1
2019-Nov-18 13:01N 54°44' E 019°10'5 9.9
2019-Nov-18 12:30N 54°40' E 019°06'14 9.6
2019-Nov-18 11:00N 54°26' E 018°58'9 6.0
2019-Nov-18 09:30N 54°23' E 018°43'0 0.0
2019-Nov-18 05:31N 54°23' E 018°43'0 0.0
2019-Nov-18 05:00N 54°23' E 018°43'0 0.0
2019-Nov-18 04:00N 54°23' E 018°43'0 0.0
2019-Nov-18 03:00N 54°23' E 018°43'0 0.0
2019-Nov-18 02:00N 54°23' E 018°43'1 1.5
2019-Nov-18 01:01N 54°24' E 018°45'1610.8
2019-Nov-17 23:30N 54°36' E 019°04'611.8
2019-Nov-17 23:00N 54°42' E 019°01'10 9.6
2019-Nov-17 22:00N 54°49' E 018°52'20 9.8
2019-Nov-17 20:00N 54°56' E 018°20'2710.7
2019-Nov-17 17:30N 54°55' E 017°33'510.6
2019-Nov-17 17:00N 54°54' E 017°24'13410.2
2019-Nov-17 03:46N 54°45' E 013°31'2410.4
2019-Nov-17 01:30N 54°46' E 012°50'4110.2
2019-Nov-16 21:30N 54°25' E 011°50'1211.6
2019-Nov-16 20:30N 54°29' E 011°32'1211.5
2019-Nov-16 19:30N 54°34' E 011°14'612.1
2019-Nov-16 19:01N 54°37' E 011°05'611.6
2019-Nov-16 18:30N 54°40' E 010°57'9 9.4
2019-Nov-16 17:30N 54°49' E 010°52'5 9.8
2019-Nov-16 17:00N 54°54' E 010°53'1111.2
2019-Nov-16 16:01N 55°04' E 011°02'612.4
2019-Nov-16 15:30N 55°10' E 011°04'117 9.8
2019-Nov-16 03:30N 57°06' E 011°39'510.0
2019-Nov-16 03:00N 57°10' E 011°36'510.1
2019-Nov-16 02:30N 57°15' E 011°32'4010.0
2019-Nov-15 22:30N 57°46' E 010°46'2510.1
2019-Nov-15 19:59N 57°47' E 009°58'10 9.9
2019-Nov-15 19:00N 57°47' E 009°40'9 9.2
2019-Nov-15 18:00N 57°44' E 009°24'59 9.6
2019-Nov-15 11:55N 57°04' E 008°05'174 9.7
2019-Nov-14 17:56N 54°11' E 007°29'811.1
2019-Nov-14 17:15N 54°04' E 007°35'43 6.4
2019-Nov-14 10:30N 53°36' E 008°31'0 0.0
2019-Nov-14 06:30N 53°36' E 008°31'0 0.0
2019-Nov-14 04:00N 53°36' E 008°31'0 0.0
2019-Nov-14 02:00N 53°36' E 008°31'0 0.0
2019-Nov-13 23:30N 53°36' E 008°31'0 0.0
2019-Nov-13 21:30N 53°36' E 008°31'0 0.0
2019-Nov-13 20:30N 53°36' E 008°31'0 0.0
2019-Nov-13 18:30N 53°36' E 008°31'0 0.0
2019-Nov-13 18:00N 53°36' E 008°31'0 0.0
2019-Nov-13 16:00N 53°36' E 008°31'0 0.0
2019-Nov-13 14:30N 53°36' E 008°31'0 0.0
2019-Nov-13 14:00N 53°36' E 008°31'1610.7
2019-Nov-13 12:30N 53°46' E 008°10'9 8.7
2019-Nov-13 11:30N 53°49' E 007°56'1610.7
2019-Nov-13 10:00N 53°35' E 008°09'0 0.0
2019-Nov-13 09:28N 53°35' E 008°09'0 0.0
2019-Nov-13 08:28N 53°35' E 008°09'0 0.0
2019-Nov-13 05:58N 53°35' E 008°09'0 0.0
2019-Nov-13 02:58N 53°35' E 008°09'0 0.0
2019-Nov-13 02:28N 53°35' E 008°09'0 0.0
2019-Nov-13 01:58N 53°35' E 008°09'0 0.0
2019-Nov-12 23:58N 53°35' E 008°09'0 0.0
2019-Nov-12 23:28N 53°35' E 008°09'0 0.0
2019-Nov-12 21:58N 53°35' E 008°09'24 6.0
2019-Nov-12 18:00N 53°54' E 007°44'202 9.9
2019-Nov-11 21:30N 57°15' E 008°18'611.1
2019-Nov-11 21:00N 57°19' E 008°25'2710.9
2019-Nov-11 18:30N 57°36' E 009°05'1010.3
2019-Nov-11 17:30N 57°42' E 009°21'5 9.8
2019-Nov-11 17:00N 57°45' E 009°28'510.0
2019-Nov-11 16:30N 57°48' E 009°35'1610.5
2019-Nov-11 15:00N 57°49' E 010°05'2010.2
2019-Nov-11 13:00N 57°48' E 010°43'10 9.9
2019-Nov-11 12:00N 57°42' E 010°58'1610.7
2019-Nov-11 10:30N 57°31' E 011°20'1610.9
2019-Nov-11 09:00N 57°16' E 011°33'12210.2
2019-Nov-10 21:00N 55°15' E 011°05'3313.2
2019-Nov-10 18:30N 54°44' E 010°47'24 9.7
2019-Nov-10 16:00N 54°32' E 011°24'12410.3
2019-Nov-10 03:56N 55°26' E 014°38'3211.0
2019-Nov-10 01:00N 55°43' E 015°27'1711.3
2019-Nov-09 23:30N 55°51' E 015°53'611.4
2019-Nov-09 23:00N 55°54' E 016°02'  
Track history (hours):
 
Tides and Currents Weather Stations Pressure Air Temp Water Temp Dewpoint Dewpoint Depression Visibility Wind Speed Wind Dir Waves Ship Positions

Venta Maersk

Last reported at 2019-Nov-19 14:30 UTC. Time now 2019-Nov-19 15:27 UTC.
Position N 55°39' E 021°10'.

Length 200 m; draft 9 m.

Type: Ship (hazmat cat A). MMSI: 219115000.

Date/timePositionNaut miles runAvg speedWind from/ knotsBaromVisibWave heightAir tempDewpointWater temp
2019-Nov-19 14:30N 55°39' E 021°10'0 0.0
2019-Nov-19 13:31N 55°39' E 021°10'0 0.0
2019-Nov-19 11:00N 55°39' E 021°10'0 0.0
2019-Nov-19 09:00N 55°39' E 021°10'0 0.0
2019-Nov-19 07:00N 55°39' E 021°10'8 3.3
2019-Nov-19 04:30N 55°44' E 020°58'14 5.0
2019-Nov-19 01:36N 55°40' E 020°33'53 5.5
2019-Nov-18 16:00N 55°01' E 019°29'3 5.4
2019-Nov-18 15:30N 54°59' E 019°27'18 7.1
2019-Nov-18 13:01N 54°44' E 019°10'5 9.9
2019-Nov-18 12:30N 54°40' E 019°06'14 9.6
2019-Nov-18 11:00N 54°26' E 018°58'9 6.0
2019-Nov-18 09:30N 54°23' E 018°43'0 0.0
2019-Nov-18 05:31N 54°23' E 018°43'0 0.0
2019-Nov-18 05:00N 54°23' E 018°43'0 0.0
2019-Nov-18 04:00N 54°23' E 018°43'0 0.0
2019-Nov-18 03:00N 54°23' E 018°43'0 0.0
2019-Nov-18 02:00N 54°23' E 018°43'1 1.5
2019-Nov-18 01:01N 54°24' E 018°45'1610.8
2019-Nov-17 23:30N 54°36' E 019°04'611.8
2019-Nov-17 23:00N 54°42' E 019°01'10 9.6
2019-Nov-17 22:00N 54°49' E 018°52'20 9.8
2019-Nov-17 20:00N 54°56' E 018°20'2710.7
2019-Nov-17 17:30N 54°55' E 017°33'510.6
2019-Nov-17 17:00N 54°54' E 017°24'13410.2
2019-Nov-17 03:46N 54°45' E 013°31'2410.4
2019-Nov-17 01:30N 54°46' E 012°50'4110.2
2019-Nov-16 21:30N 54°25' E 011°50'1211.6
2019-Nov-16 20:30N 54°29' E 011°32'1211.5
2019-Nov-16 19:30N 54°34' E 011°14'612.1
2019-Nov-16 19:01N 54°37' E 011°05'611.6
2019-Nov-16 18:30N 54°40' E 010°57'9 9.4
2019-Nov-16 17:30N 54°49' E 010°52'5 9.8
2019-Nov-16 17:00N 54°54' E 010°53'1111.2
2019-Nov-16 16:01N 55°04' E 011°02'612.4
2019-Nov-16 15:30N 55°10' E 011°04'117 9.8
2019-Nov-16 03:30N 57°06' E 011°39'510.0
2019-Nov-16 03:00N 57°10' E 011°36'510.1
2019-Nov-16 02:30N 57°15' E 011°32'4010.0
2019-Nov-15 22:30N 57°46' E 010°46'2510.1
2019-Nov-15 19:59N 57°47' E 009°58'10 9.9
2019-Nov-15 19:00N 57°47' E 009°40'9 9.2
2019-Nov-15 18:00N 57°44' E 009°24'59 9.6
2019-Nov-15 11:55N 57°04' E 008°05'174 9.7
2019-Nov-14 17:56N 54°11' E 007°29'811.1
2019-Nov-14 17:15N 54°04' E 007°35'43 6.4
2019-Nov-14 10:30N 53°36' E 008°31'0 0.0
2019-Nov-14 06:30N 53°36' E 008°31'0 0.0
2019-Nov-14 04:00N 53°36' E 008°31'0 0.0
2019-Nov-14 02:00N 53°36' E 008°31'0 0.0
2019-Nov-13 23:30N 53°36' E 008°31'0 0.0
2019-Nov-13 21:30N 53°36' E 008°31'0 0.0
2019-Nov-13 20:30N 53°36' E 008°31'0 0.0
2019-Nov-13 18:30N 53°36' E 008°31'0 0.0
2019-Nov-13 18:00N 53°36' E 008°31'0 0.0
2019-Nov-13 16:00N 53°36' E 008°31'0 0.0
2019-Nov-13 14:30N 53°36' E 008°31'0 0.0
2019-Nov-13 14:00N 53°36' E 008°31'1610.7
2019-Nov-13 12:30N 53°46' E 008°10'9 8.7
2019-Nov-13 11:30N 53°49' E 007°56'1610.7
2019-Nov-13 10:00N 53°35' E 008°09'0 0.0
2019-Nov-13 09:28N 53°35' E 008°09'0 0.0
2019-Nov-13 08:28N 53°35' E 008°09'0 0.0
2019-Nov-13 05:58N 53°35' E 008°09'0 0.0
2019-Nov-13 02:58N 53°35' E 008°09'0 0.0
2019-Nov-13 02:28N 53°35' E 008°09'0 0.0
2019-Nov-13 01:58N 53°35' E 008°09'0 0.0
2019-Nov-12 23:58N 53°35' E 008°09'0 0.0
2019-Nov-12 23:28N 53°35' E 008°09'0 0.0
2019-Nov-12 21:58N 53°35' E 008°09'24 6.0
2019-Nov-12 18:00N 53°54' E 007°44'202 9.9
2019-Nov-11 21:30N 57°15' E 008°18'611.1
2019-Nov-11 21:00N 57°19' E 008°25'2710.9
2019-Nov-11 18:30N 57°36' E 009°05'1010.3
2019-Nov-11 17:30N 57°42' E 009°21'5 9.8
2019-Nov-11 17:00N 57°45' E 009°28'510.0
2019-Nov-11 16:30N 57°48' E 009°35'1610.5
2019-Nov-11 15:00N 57°49' E 010°05'2010.2
2019-Nov-11 13:00N 57°48' E 010°43'10 9.9
2019-Nov-11 12:00N 57°42' E 010°58'1610.7
2019-Nov-11 10:30N 57°31' E 011°20'1610.9
2019-Nov-11 09:00N 57°16' E 011°33'12210.2
2019-Nov-10 21:00N 55°15' E 011°05'3313.2
2019-Nov-10 18:30N 54°44' E 010°47'24 9.7
2019-Nov-10 16:00N 54°32' E 011°24'12410.3
2019-Nov-10 03:56N 55°26' E 014°38'3211.0
2019-Nov-10 01:00N 55°43' E 015°27'1711.3
2019-Nov-09 23:30N 55°51' E 015°53'611.4
2019-Nov-09 23:00N 55°54' E 016°02'  

Dump ship's entire track history